createdAt,value
2018-10-17T00:02:03.030Z,18.27
2018-10-17T00:04:31.409Z,18.07
2018-10-17T00:06:59.851Z,16.17
2018-10-17T00:09:28.217Z,16.30
2018-10-17T00:11:56.744Z,15.47
2018-10-17T00:14:25.190Z,14.70
2018-10-17T00:16:53.594Z,14.53
2018-10-17T00:19:22.019Z,13.83
2018-10-17T00:21:50.393Z,14.33
2018-10-17T00:24:18.835Z,15.73
2018-10-17T00:26:47.329Z,15.73
2018-10-17T00:29:15.760Z,17.87
2018-10-17T00:31:44.157Z,14.37
2018-10-17T00:34:12.579Z,12.43
2018-10-17T00:36:41.032Z,15.97
2018-10-17T00:39:10.879Z,13.03
2018-10-17T00:41:39.361Z,14.17
2018-10-17T00:44:07.872Z,20.63
2018-10-17T00:46:36.266Z,14.57
2018-10-17T00:49:04.916Z,16.80
2018-10-17T00:51:33.221Z,14.80
2018-10-17T00:54:01.625Z,15.30
2018-10-17T00:56:30.042Z,14.27
2018-10-17T00:59:07.386Z,13.80
2018-10-17T01:01:36.097Z,14.67
2018-10-17T01:04:04.617Z,15.53
2018-10-17T01:06:33.872Z,14.50
2018-10-17T01:09:05.369Z,13.30
2018-10-17T01:11:33.953Z,14.00
2018-10-17T01:14:02.529Z,13.57
2018-10-17T01:16:30.942Z,14.27
2018-10-17T01:18:59.483Z,15.07
2018-10-17T01:21:27.941Z,14.30
2018-10-17T01:23:56.338Z,14.23
2018-10-17T01:26:24.825Z,15.20
2018-10-17T01:28:53.289Z,16.73
2018-10-17T01:31:21.862Z,15.83
2018-10-17T01:33:50.345Z,17.67
2018-10-17T01:36:18.773Z,16.10
2018-10-17T01:38:47.232Z,17.07
2018-10-17T01:41:15.702Z,15.80
2018-10-17T01:43:44.098Z,18.07
2018-10-17T01:46:12.519Z,15.30
2018-10-17T01:48:40.911Z,15.17
2018-10-17T01:51:09.346Z,15.63
2018-10-17T01:53:37.769Z,16.27
2018-10-17T01:56:06.347Z,16.67
2018-10-17T01:58:34.746Z,15.50
2018-10-17T02:01:03.182Z,15.93
2018-10-17T02:03:31.557Z,16.43
2018-10-17T02:05:59.997Z,16.20
2018-10-17T02:08:28.497Z,16.93
2018-10-17T02:10:56.893Z,15.93
2018-10-17T02:13:25.289Z,17.33
2018-10-17T02:15:54.318Z,16.63
2018-10-17T02:18:22.705Z,18.10
2018-10-17T02:20:51.393Z,15.70
2018-10-17T02:23:19.772Z,15.73
2018-10-17T02:25:48.164Z,16.63
2018-10-17T02:28:16.528Z,22.63
2018-10-17T02:30:44.934Z,15.93
2018-10-17T02:33:13.333Z,15.67
2018-10-17T02:35:41.786Z,16.97
2018-10-17T02:38:10.149Z,16.17
2018-10-17T02:40:38.519Z,17.47
2018-10-17T02:43:07.130Z,15.90
2018-10-17T02:45:35.423Z,15.90
2018-10-17T02:48:03.885Z,18.63
2018-10-17T02:50:32.244Z,15.80
2018-10-17T02:53:00.933Z,16.60
2018-10-17T02:55:29.274Z,18.20
2018-10-17T02:57:57.715Z,16.33
2018-10-17T03:00:26.099Z,15.70
2018-10-17T03:02:54.514Z,16.17
2018-10-17T03:05:22.918Z,17.03
2018-10-17T03:07:51.324Z,15.70
2018-10-17T03:10:19.927Z,16.17
2018-10-17T03:12:48.327Z,16.63
2018-10-17T03:15:16.736Z,15.33
2018-10-17T03:17:45.161Z,15.30
2018-10-17T03:20:13.618Z,15.40
2018-10-17T03:22:42.026Z,17.20
2018-10-17T03:25:10.901Z,16.37
2018-10-17T03:27:39.272Z,14.40
2018-10-17T03:30:07.702Z,14.37
2018-10-17T03:32:36.093Z,13.90
2018-10-17T03:35:04.573Z,17.27
2018-10-17T03:37:32.958Z,17.17
2018-10-17T03:40:01.346Z,15.03
2018-10-17T03:42:29.730Z,14.00
2018-10-17T03:44:58.206Z,15.00
2018-10-17T03:47:26.601Z,16.20
2018-10-17T03:49:55.020Z,16.93
2018-10-17T03:52:23.400Z,14.20
2018-10-17T03:54:51.861Z,19.30
2018-10-17T03:57:20.256Z,13.87
2018-10-17T03:59:48.727Z,15.23
2018-10-17T04:02:17.134Z,17.73
2018-10-17T04:04:45.547Z,16.20
2018-10-17T04:07:13.959Z,15.83
2018-10-17T04:09:42.439Z,17.47
2018-10-17T04:12:10.831Z,17.20
2018-10-17T04:14:39.239Z,15.43
2018-10-17T04:17:07.694Z,15.17
2018-10-17T04:19:36.048Z,13.90
2018-10-17T04:22:04.451Z,15.87
2018-10-17T04:24:32.890Z,14.10
2018-10-17T04:27:01.251Z,15.47
2018-10-17T04:29:29.694Z,16.00
2018-10-17T04:31:58.088Z,13.63
2018-10-17T04:34:26.488Z,13.90
2018-10-17T04:37:00.456Z,16.00
2018-10-17T04:39:28.837Z,13.53
2018-10-17T04:41:57.222Z,15.40
2018-10-17T04:44:25.822Z,15.43
2018-10-17T04:46:54.274Z,15.70
2018-10-17T04:49:22.613Z,18.50
2018-10-17T04:51:51.073Z,17.67
2018-10-17T04:54:19.477Z,16.83
2018-10-17T04:56:47.881Z,22.57
2018-10-17T04:59:16.305Z,16.83
2018-10-17T05:01:44.785Z,18.10
2018-10-17T05:04:13.318Z,18.43
2018-10-17T05:06:41.807Z,19.60
2018-10-17T05:09:10.876Z,18.20
2018-10-17T05:11:40.045Z,17.93
2018-10-17T05:14:08.536Z,18.03
2018-10-17T05:16:37.329Z,16.40
2018-10-17T05:19:05.916Z,21.33
2018-10-17T05:21:34.269Z,18.07
2018-10-17T05:24:02.698Z,15.27
2018-10-17T05:26:31.245Z,17.33
2018-10-17T05:28:59.698Z,16.07
2018-10-17T05:31:28.115Z,15.87
2018-10-17T05:33:56.542Z,17.40
2018-10-17T05:36:25.041Z,17.70
2018-10-17T05:38:53.433Z,17.60
2018-10-17T05:41:21.823Z,17.33
2018-10-17T05:43:50.346Z,18.17
2018-10-17T05:46:18.779Z,18.47
2018-10-17T05:48:47.224Z,17.03
2018-10-17T05:51:15.880Z,16.27
2018-10-17T05:53:44.307Z,17.80
2018-10-17T05:56:12.697Z,15.07
2018-10-17T05:58:41.189Z,21.27
2018-10-17T06:01:09.621Z,21.03
2018-10-17T06:03:38.031Z,18.27
2018-10-17T06:06:06.495Z,29.23
2018-10-17T06:08:34.983Z,23.93
2018-10-17T06:11:03.392Z,20.13
2018-10-17T06:13:31.866Z,21.13
2018-10-17T06:16:00.301Z,25.53
2018-10-17T06:18:28.786Z,20.50
2018-10-17T06:20:57.206Z,17.87
2018-10-17T06:23:25.642Z,17.10
2018-10-17T06:25:54.121Z,19.67
2018-10-17T06:28:22.607Z,32.97
2018-10-17T06:30:51.177Z,28.83
2018-10-17T06:33:19.501Z,21.93
2018-10-17T06:35:47.915Z,18.43
2018-10-17T06:38:16.289Z,18.37
2018-10-17T06:40:44.738Z,20.10
2018-10-17T06:43:13.146Z,18.83
2018-10-17T06:45:41.617Z,20.97
2018-10-17T06:48:10.041Z,22.57
2018-10-17T06:50:38.466Z,18.83
2018-10-17T06:53:06.948Z,21.47
2018-10-17T06:55:35.360Z,18.00
2018-10-17T06:58:03.751Z,19.97
2018-10-17T07:00:32.226Z,20.67
2018-10-17T07:03:00.619Z,16.33
2018-10-17T07:05:29.025Z,18.23
2018-10-17T07:07:57.469Z,17.90
2018-10-17T07:10:26.974Z,17.97
2018-10-17T07:12:55.486Z,17.00
2018-10-17T07:15:23.941Z,17.37
2018-10-17T07:17:52.281Z,19.43
2018-10-17T07:20:20.777Z,22.73
2018-10-17T07:22:49.170Z,17.20
2018-10-17T07:25:17.661Z,18.93
2018-10-17T07:27:45.990Z,23.03
2018-10-17T07:30:14.419Z,20.57
2018-10-17T07:32:42.886Z,20.60
2018-10-17T07:35:11.491Z,16.77
2018-10-17T07:37:39.898Z,20.20
2018-10-17T07:40:08.305Z,23.70
2018-10-17T07:42:36.811Z,20.63
2018-10-17T07:45:05.973Z,21.93
2018-10-17T07:47:34.415Z,22.27
2018-10-17T07:50:02.962Z,24.13
2018-10-17T07:52:31.476Z,17.90
2018-10-17T07:54:59.898Z,20.90
2018-10-17T07:57:28.302Z,20.13
2018-10-17T07:59:56.777Z,23.83
2018-10-17T08:02:26.241Z,21.93
2018-10-17T08:04:55.014Z,17.60
2018-10-17T08:07:24.477Z,18.57
2018-10-17T08:09:54.305Z,21.00
2018-10-17T08:12:22.890Z,26.70
2018-10-17T08:14:51.241Z,25.03
2018-10-17T08:17:20.587Z,20.47
2018-10-17T08:19:48.965Z,25.03
2018-10-17T08:22:18.057Z,19.70
2018-10-17T08:24:46.542Z,23.93
2018-10-17T08:27:15.089Z,19.90
2018-10-17T08:29:43.457Z,20.63
2018-10-17T08:32:11.857Z,21.43
2018-10-17T08:34:41.171Z,21.60
2018-10-17T08:37:10.462Z,16.33
2018-10-17T08:39:38.454Z,17.07
2018-10-17T08:42:07.277Z,15.80
2018-10-17T08:44:36.421Z,18.63
2018-10-17T08:47:05.250Z,17.20
2018-10-17T08:49:35.229Z,18.23
2018-10-17T08:52:03.625Z,15.90
2018-10-17T08:54:32.081Z,19.20
2018-10-17T08:57:01.337Z,16.57
2018-10-17T08:59:29.768Z,19.07
2018-10-17T09:01:58.179Z,19.83
2018-10-17T09:04:27.709Z,19.07
2018-10-17T09:06:56.122Z,19.97
2018-10-17T09:09:24.527Z,17.17
2018-10-17T09:11:52.992Z,20.50
2018-10-17T09:14:21.447Z,17.30
2018-10-17T09:16:49.879Z,20.70
2018-10-17T09:19:18.324Z,17.87
2018-10-17T09:21:47.104Z,26.57
2018-10-17T09:24:15.166Z,20.47
2018-10-17T09:26:43.623Z,19.03
2018-10-17T09:29:12.029Z,22.00
2018-10-17T09:31:40.429Z,16.77
2018-10-17T09:34:08.901Z,22.97
2018-10-17T09:36:38.500Z,16.53
2018-10-17T09:39:13.935Z,16.87
2018-10-17T09:41:42.370Z,21.60
2018-10-17T09:44:10.749Z,16.17
2018-10-17T09:46:39.301Z,19.27
2018-10-17T09:49:07.680Z,18.30
2018-10-17T09:51:36.820Z,22.13
2018-10-17T09:54:05.487Z,21.53
2018-10-17T09:56:39.944Z,15.13
2018-10-17T09:59:10.434Z,14.47
2018-10-17T10:01:44.056Z,13.67
2018-10-17T10:04:12.508Z,15.77
2018-10-17T10:06:43.031Z,17.40
2018-10-17T10:09:11.925Z,14.30
2018-10-17T10:11:40.462Z,16.53
2018-10-17T10:14:14.502Z,13.60
2018-10-17T10:16:42.949Z,18.23
2018-10-17T10:19:12.080Z,14.33
2018-10-17T10:21:40.525Z,16.67
2018-10-17T10:24:09.671Z,13.13
2018-10-17T10:26:38.022Z,17.53
2018-10-17T10:29:06.445Z,16.20
2018-10-17T10:31:47.667Z,14.63
2018-10-17T10:34:16.173Z,14.63
2018-10-17T10:36:44.568Z,13.50
2018-10-17T10:39:13.358Z,16.83
2018-10-17T10:41:42.117Z,17.37
2018-10-17T10:44:17.868Z,17.30
2018-10-17T10:46:46.223Z,17.17
2018-10-17T10:49:15.817Z,15.10
2018-10-17T10:51:44.345Z,12.13
2018-10-17T10:54:12.694Z,13.30
2018-10-17T10:56:57.248Z,13.37
2018-10-17T10:59:25.973Z,12.60
2018-10-17T11:01:54.340Z,13.37
2018-10-17T11:04:22.789Z,15.73
2018-10-17T11:06:52.214Z,14.13
2018-10-17T11:09:30.983Z,13.00
2018-10-17T11:11:59.418Z,15.60
2018-10-17T11:14:28.052Z,14.27
2018-10-17T11:16:56.521Z,13.53
2018-10-17T11:19:25.009Z,13.27
2018-10-17T11:21:53.731Z,15.07
2018-10-17T11:24:22.119Z,14.13
2018-10-17T11:26:50.516Z,11.93
2018-10-17T11:29:19.003Z,13.43
2018-10-17T11:31:47.790Z,11.70
2018-10-17T11:34:16.210Z,9.40
2018-10-17T11:36:44.648Z,9.00
2018-10-17T11:39:13.219Z,10.00
2018-10-17T11:41:41.882Z,10.47
2018-10-17T11:44:10.238Z,8.23
2018-10-17T11:46:38.647Z,8.13
2018-10-17T11:49:07.098Z,9.90
2018-10-17T11:51:35.498Z,7.93
2018-10-17T11:54:03.960Z,9.97
2018-10-17T11:56:32.358Z,11.27
2018-10-17T11:59:00.860Z,8.43
2018-10-17T12:01:29.212Z,10.03
2018-10-17T12:03:57.854Z,8.90
2018-10-17T12:06:26.174Z,9.07
2018-10-17T12:08:54.490Z,9.67
2018-10-17T12:11:22.943Z,11.17
2018-10-17T12:13:51.341Z,10.20
2018-10-17T12:16:19.746Z,8.33
2018-10-17T12:18:48.120Z,9.27
2018-10-17T12:21:16.588Z,10.37
2018-10-17T12:23:44.941Z,9.27
2018-10-17T12:26:13.364Z,9.03
2018-10-17T12:28:41.848Z,9.53
2018-10-17T12:31:10.202Z,13.20
2018-10-17T12:33:38.578Z,9.10
2018-10-17T12:36:07.080Z,11.43
2018-10-17T12:38:35.447Z,8.57
2018-10-17T12:41:04.162Z,8.07
2018-10-17T12:43:32.551Z,12.47
2018-10-17T12:46:01.286Z,7.47
2018-10-17T12:48:30.122Z,9.83
2018-10-17T12:50:58.522Z,9.13
2018-10-17T12:53:26.932Z,7.93
2018-10-17T12:55:55.424Z,9.37
2018-10-17T12:58:23.802Z,10.23
2018-10-17T13:00:52.622Z,8.37
2018-10-17T13:03:21.017Z,9.13
2018-10-17T13:05:49.394Z,7.93
2018-10-17T13:08:17.870Z,9.57
2018-10-17T13:10:46.252Z,10.87
2018-10-17T13:13:14.765Z,8.60
2018-10-17T13:15:43.171Z,12.17
2018-10-17T13:18:11.675Z,8.80
2018-10-17T13:20:40.059Z,11.40
2018-10-17T13:23:08.528Z,10.97
2018-10-17T13:25:36.901Z,9.00
2018-10-17T13:28:05.323Z,9.00
2018-10-17T13:30:33.782Z,8.80
2018-10-17T13:33:02.199Z,7.97
2018-10-17T13:35:30.609Z,9.53
2018-10-17T13:37:59.046Z,11.45
2018-10-17T13:40:27.409Z,9.00
2018-10-17T13:42:55.836Z,9.58
2018-10-17T13:45:24.233Z,10.30
2018-10-17T13:47:52.640Z,9.83
2018-10-17T13:50:21.045Z,10.30
2018-10-17T13:52:49.486Z,10.13
2018-10-17T13:55:18.395Z,9.40
2018-10-17T13:57:46.820Z,10.43
2018-10-17T14:00:15.301Z,12.67
2018-10-17T14:02:44.545Z,9.63
2018-10-17T14:05:13.110Z,10.00
2018-10-17T14:07:41.545Z,12.40
2018-10-17T14:10:09.952Z,12.37
2018-10-17T14:12:38.594Z,11.60
2018-10-17T14:15:07.113Z,10.50
2018-10-17T14:17:35.640Z,9.40
2018-10-17T14:20:04.120Z,11.10
2018-10-17T14:22:32.533Z,11.17
2018-10-17T14:25:00.924Z,9.05
2018-10-17T14:27:29.312Z,14.00
2018-10-17T14:29:57.772Z,14.70
2018-10-17T14:32:26.769Z,13.80
2018-10-17T14:34:55.201Z,11.97
2018-10-17T14:37:24.255Z,10.53
2018-10-17T14:39:53.285Z,10.18
2018-10-17T14:42:21.767Z,10.08
2018-10-17T14:44:50.170Z,12.73
2018-10-17T14:47:18.581Z,13.75
2018-10-17T14:49:48.266Z,10.10
2018-10-17T14:52:16.649Z,13.10
2018-10-17T14:54:46.400Z,11.63
2018-10-17T14:57:14.827Z,14.50
2018-10-17T14:59:43.253Z,11.50
2018-10-17T15:02:11.717Z,15.30
2018-10-17T15:04:41.153Z,11.43
2018-10-17T15:07:09.583Z,11.33
2018-10-17T15:09:40.300Z,12.90
2018-10-17T15:12:08.913Z,12.93
2018-10-17T15:14:37.304Z,12.07
2018-10-17T15:17:05.842Z,10.93
2018-10-17T15:19:34.232Z,10.00
2018-10-17T15:22:04.070Z,13.03
2018-10-17T15:24:32.512Z,12.43
2018-10-17T15:27:00.936Z,12.00
2018-10-17T15:29:29.323Z,11.73
2018-10-17T15:31:57.871Z,22.93
2018-10-17T15:34:26.180Z,10.53
2018-10-17T15:36:54.756Z,13.93
2018-10-17T15:39:23.114Z,13.00
2018-10-17T15:41:51.574Z,12.13
2018-10-17T15:44:19.929Z,18.37
2018-10-17T15:46:48.368Z,12.20
2018-10-17T15:49:16.790Z,16.47
2018-10-17T15:51:45.229Z,11.77
2018-10-17T15:54:13.692Z,14.03
2018-10-17T15:56:42.026Z,14.47
2018-10-17T15:59:10.506Z,13.23
2018-10-17T16:01:38.949Z,11.13
2018-10-17T16:04:07.329Z,13.90
2018-10-17T16:06:35.754Z,10.47
2018-10-17T16:09:05.658Z,15.50
2018-10-17T16:11:34.666Z,12.03
2018-10-17T16:14:10.009Z,13.37
2018-10-17T16:16:38.534Z,12.40
2018-10-17T16:19:07.158Z,10.87
2018-10-17T16:21:35.534Z,13.30
2018-10-17T16:24:04.038Z,10.97
2018-10-17T16:26:32.415Z,12.77
2018-10-17T16:29:00.928Z,12.93
2018-10-17T16:31:30.782Z,14.00
2018-10-17T16:33:59.245Z,12.27
2018-10-17T16:36:27.661Z,14.00
2018-10-17T16:38:56.053Z,11.27
2018-10-17T16:41:24.578Z,11.53
2018-10-17T16:43:53.040Z,20.17
2018-10-17T16:46:21.458Z,17.90
2018-10-17T16:48:49.944Z,18.37
2018-10-17T16:51:18.459Z,17.43
2018-10-17T16:53:46.879Z,18.47
2018-10-17T16:56:15.281Z,19.63
2018-10-17T16:58:43.775Z,18.90
2018-10-17T17:01:12.135Z,20.77
2018-10-17T17:03:40.675Z,19.40
2018-10-17T17:06:09.102Z,18.07
2018-10-17T17:08:37.552Z,21.47
2018-10-17T17:11:06.506Z,19.47
2018-10-17T17:13:35.910Z,24.90
2018-10-17T17:16:04.846Z,25.27
2018-10-17T17:18:34.081Z,24.53
2018-10-17T17:21:03.225Z,22.93
2018-10-17T17:23:42.423Z,22.33
2018-10-17T17:26:11.311Z,17.37
2018-10-17T17:28:42.750Z,19.47
2018-10-17T17:31:11.170Z,21.07
2018-10-17T17:33:39.566Z,20.10
2018-10-17T17:36:10.727Z,21.47
2018-10-17T17:38:39.140Z,23.80
2018-10-17T17:41:08.137Z,20.83
2018-10-17T17:43:37.681Z,22.10
2018-10-17T17:46:07.509Z,20.87
2018-10-17T17:48:36.290Z,23.57
2018-10-17T17:51:05.179Z,21.90
2018-10-17T17:53:35.950Z,25.30
2018-10-17T17:56:06.958Z,23.10
2018-10-17T17:58:38.827Z,22.33
2018-10-17T18:01:09.876Z,23.63
2018-10-17T18:03:38.409Z,22.80
2018-10-17T18:06:07.383Z,22.83
2018-10-17T18:08:35.794Z,23.70
2018-10-17T18:11:24.604Z,21.53
2018-10-17T18:13:54.206Z,22.67
2018-10-17T18:16:22.681Z,26.00
2018-10-17T18:18:51.114Z,25.77
2018-10-17T18:21:19.524Z,22.73
2018-10-17T18:23:48.001Z,22.80
2018-10-17T18:26:16.535Z,23.67
2018-10-17T18:28:45.000Z,24.70
2018-10-17T18:31:13.530Z,24.43
2018-10-17T18:33:41.937Z,24.40
2018-10-17T18:36:10.413Z,29.77
2018-10-17T18:38:38.848Z,28.77
2018-10-17T18:41:07.372Z,31.30
2018-10-17T18:43:35.790Z,26.73
2018-10-17T18:46:04.271Z,24.93
2018-10-17T18:48:32.811Z,33.77
2018-10-17T18:51:01.332Z,32.33
2018-10-17T18:53:30.610Z,38.07
2018-10-17T18:55:59.071Z,34.93
2018-10-17T18:58:27.545Z,37.67
2018-10-17T19:00:56.233Z,40.20
2018-10-17T19:03:24.757Z,42.63
2018-10-17T19:05:53.222Z,44.60
2018-10-17T19:08:21.711Z,39.13
2018-10-17T19:10:50.777Z,40.33
2018-10-17T19:13:19.497Z,40.17
2018-10-17T19:15:47.985Z,40.20
2018-10-17T19:18:16.453Z,39.80
2018-10-17T19:20:44.885Z,40.53
2018-10-17T19:23:13.861Z,44.67
2018-10-17T19:25:42.304Z,43.47
2018-10-17T19:28:10.781Z,42.47
2018-10-17T19:30:39.614Z,42.53
2018-10-17T19:33:08.095Z,45.27
2018-10-17T19:35:36.732Z,45.40
2018-10-17T19:38:05.633Z,44.77
2018-10-17T19:40:34.209Z,46.47
2018-10-17T19:43:02.637Z,53.93
2018-10-17T19:45:31.114Z,47.83
2018-10-17T19:47:59.965Z,55.03
2018-10-17T19:50:28.386Z,51.83
2018-10-17T19:52:56.851Z,54.67
2018-10-17T19:55:25.300Z,53.13
2018-10-17T19:57:53.725Z,58.10
2018-10-17T20:00:22.194Z,58.83
2018-10-17T20:02:50.666Z,56.00
2018-10-17T20:05:19.124Z,58.87
2018-10-17T20:07:47.766Z,61.90
2018-10-17T20:10:20.347Z,61.97
2018-10-17T20:12:48.739Z,58.17
2018-10-17T20:15:17.278Z,61.53
2018-10-17T20:17:45.642Z,56.73
2018-10-17T20:20:14.104Z,61.57
2018-10-17T20:22:42.630Z,62.77
2018-10-17T20:25:12.083Z,62.33
2018-10-17T20:27:40.459Z,57.60
2018-10-17T20:30:09.601Z,67.60
2018-10-17T20:32:38.095Z,62.33
2018-10-17T20:35:06.917Z,69.83
2018-10-17T20:37:35.313Z,62.97
2018-10-17T20:40:04.073Z,62.87
2018-10-17T20:42:32.599Z,68.33
2018-10-17T20:45:01.013Z,68.90
2018-10-17T20:47:29.489Z,70.20
2018-10-17T20:49:57.935Z,67.67
2018-10-17T20:52:29.020Z,67.00
2018-10-17T20:54:57.325Z,68.23
2018-10-17T20:57:25.827Z,66.83
2018-10-17T20:59:54.225Z,67.40
2018-10-17T21:02:22.730Z,67.40
2018-10-17T21:04:51.104Z,72.30
2018-10-17T21:07:19.529Z,68.77
2018-10-17T21:09:48.779Z,75.23
2018-10-17T21:12:17.261Z,71.53
2018-10-17T21:14:46.081Z,75.73
2018-10-17T21:17:14.625Z,76.53
2018-10-17T21:19:43.046Z,74.30
2018-10-17T21:22:11.529Z,81.33
2018-10-17T21:24:40.018Z,71.93
2018-10-17T21:27:08.540Z,79.93
2018-10-17T21:29:36.948Z,73.70
2018-10-17T21:32:05.593Z,72.27
2018-10-17T21:34:33.980Z,74.40
2018-10-17T21:37:03.013Z,69.67
2018-10-17T21:39:31.474Z,65.83
2018-10-17T21:41:59.921Z,70.00
2018-10-17T21:44:28.335Z,67.80
2018-10-17T21:46:56.787Z,73.73
2018-10-17T21:49:25.233Z,68.83
2018-10-17T21:51:54.160Z,70.00
2018-10-17T21:54:22.600Z,76.27
2018-10-17T21:56:51.033Z,72.47
2018-10-17T21:59:19.489Z,67.60
2018-10-17T22:01:47.957Z,69.13
2018-10-17T22:04:17.481Z,63.57
2018-10-17T22:06:45.928Z,75.13
2018-10-17T22:09:14.373Z,70.13
2018-10-17T22:11:42.869Z,70.20
2018-10-17T22:14:11.407Z,73.33
2018-10-17T22:16:45.058Z,67.07
2018-10-17T22:19:13.746Z,67.10
2018-10-17T22:21:41.910Z,71.23
2018-10-17T22:24:10.397Z,67.23
2018-10-17T22:26:39.594Z,68.03
2018-10-17T22:29:08.156Z,67.33
2018-10-17T22:31:37.084Z,61.67
2018-10-17T22:34:05.573Z,74.17
2018-10-17T22:36:34.005Z,68.07
2018-10-17T22:39:02.546Z,72.43
2018-10-17T22:41:31.030Z,72.63
2018-10-17T22:43:59.431Z,67.70
2018-10-17T22:46:27.900Z,75.47
2018-10-17T22:48:56.330Z,72.63
2018-10-17T22:51:24.737Z,72.83
2018-10-17T22:53:53.176Z,69.80
2018-10-17T22:56:21.598Z,67.30
2018-10-17T22:58:50.082Z,67.90
2018-10-17T23:01:18.475Z,66.53
2018-10-17T23:03:50.476Z,70.40
2018-10-17T23:06:18.928Z,63.10
2018-10-17T23:08:47.357Z,66.03
2018-10-17T23:11:15.733Z,62.40
2018-10-17T23:13:44.158Z,67.00
2018-10-17T23:16:12.521Z,65.93
2018-10-17T23:18:40.921Z,71.60
2018-10-17T23:21:09.401Z,66.80
2018-10-17T23:23:37.841Z,63.57
2018-10-17T23:26:06.871Z,64.60
2018-10-17T23:28:35.250Z,66.50
2018-10-17T23:31:03.673Z,68.00
2018-10-17T23:33:32.102Z,66.93
2018-10-17T23:36:00.656Z,70.80
2018-10-17T23:38:29.090Z,68.03
2018-10-17T23:40:57.527Z,68.57
2018-10-17T23:43:25.964Z,74.37
2018-10-17T23:45:54.357Z,74.80
2018-10-17T23:48:22.757Z,66.47
2018-10-17T23:50:51.198Z,71.00
2018-10-17T23:53:19.605Z,77.97
2018-10-17T23:55:48.028Z,77.40
2018-10-17T23:58:16.450Z,73.70
